createdAt,value
2018-12-19T00:01:40.345Z,-7.46
2018-12-19T00:04:09.632Z,-7.58
2018-12-19T00:06:38.862Z,-7.63
2018-12-19T00:09:08.675Z,-7.65
2018-12-19T00:11:38.087Z,-7.70
2018-12-19T00:14:07.545Z,-7.70
2018-12-19T00:16:36.825Z,-7.71
2018-12-19T00:19:06.079Z,-7.86
2018-12-19T00:21:35.393Z,-7.96
2018-12-19T00:24:04.845Z,-7.74
2018-12-19T00:26:34.092Z,-7.68
2018-12-19T00:29:04.405Z,-7.93
2018-12-19T00:31:33.935Z,-8.06
2018-12-19T00:34:03.990Z,-8.17
2018-12-19T00:36:34.542Z,-8.27
2018-12-19T00:39:09.498Z,-8.35
2018-12-19T00:41:36.808Z,-8.38
2018-12-19T00:44:06.171Z,-8.22
2018-12-19T00:46:35.627Z,-8.08
2018-12-19T00:49:04.916Z,-8.14
2018-12-19T00:51:34.128Z,-8.11
2018-12-19T00:54:03.369Z,-8.25
2018-12-19T00:56:32.635Z,-8.33
2018-12-19T00:59:02.803Z,-8.43
2018-12-19T01:01:32.847Z,-8.49
2018-12-19T01:04:02.135Z,-8.49
2018-12-19T01:06:31.481Z,-8.38
2018-12-19T01:09:01.077Z,-8.39
2018-12-19T01:11:30.371Z,-8.29
2018-12-19T01:14:00.794Z,-8.20
2018-12-19T01:16:30.142Z,-8.15
2018-12-19T01:18:59.398Z,-8.06
2018-12-19T01:21:28.608Z,-7.98
2018-12-19T01:23:57.809Z,-7.88
2018-12-19T01:26:27.341Z,-7.73
2018-12-19T01:28:56.715Z,-7.55
2018-12-19T01:31:25.976Z,-7.38
2018-12-19T01:33:55.255Z,-7.21
2018-12-19T01:36:24.738Z,-7.04
2018-12-19T01:38:54.097Z,-6.89
2018-12-19T01:41:23.402Z,-6.75
2018-12-19T01:43:52.701Z,-6.41
2018-12-19T01:46:22.016Z,-6.32
2018-12-19T01:48:51.236Z,-6.26
2018-12-19T01:51:20.885Z,-6.03
2018-12-19T01:53:50.308Z,-6.01
2018-12-19T01:56:19.506Z,-5.95
2018-12-19T01:58:48.836Z,-5.86
2018-12-19T02:01:18.088Z,-5.81
2018-12-19T02:03:47.783Z,-5.76
2018-12-19T02:06:17.043Z,-5.71
2018-12-19T02:08:46.326Z,-5.64
2018-12-19T02:11:15.635Z,-5.58
2018-12-19T02:13:44.878Z,-5.51
2018-12-19T02:16:14.117Z,-6.07
2018-12-19T02:18:43.311Z,-5.40
2018-12-19T02:21:12.896Z,-5.33
2018-12-19T02:23:42.106Z,-5.23
2018-12-19T02:26:11.472Z,-5.05
2018-12-19T02:28:41.570Z,-4.85
2018-12-19T02:31:10.976Z,-4.74
2018-12-19T02:33:40.174Z,-4.74
2018-12-19T02:36:09.385Z,-4.76
2018-12-19T02:38:38.685Z,-4.63
2018-12-19T02:41:07.937Z,-4.53
2018-12-19T02:43:37.148Z,-4.47
2018-12-19T02:46:06.374Z,-4.51
2018-12-19T02:48:36.583Z,-4.56
2018-12-19T02:51:05.921Z,-4.56
2018-12-19T02:53:35.192Z,-4.41
2018-12-19T02:56:04.469Z,-4.23
2018-12-19T02:58:33.853Z,-4.19
2018-12-19T03:01:03.217Z,-4.15
2018-12-19T03:03:32.502Z,-4.07
2018-12-19T03:06:01.782Z,-4.03
2018-12-19T03:08:31.643Z,-3.99
2018-12-19T03:11:00.978Z,-3.96
2018-12-19T03:13:30.809Z,-3.68
2018-12-19T03:16:00.802Z,-3.50
2018-12-19T03:18:30.162Z,-3.38
2018-12-19T03:20:59.951Z,-3.40
2018-12-19T03:23:30.204Z,-3.39
2018-12-19T03:25:59.437Z,-3.39
2018-12-19T03:28:28.633Z,-3.33
2018-12-19T03:30:57.857Z,-3.35
2018-12-19T03:33:27.730Z,-3.21
2018-12-19T03:35:56.975Z,-3.20
2018-12-19T03:38:26.230Z,-3.05
2018-12-19T03:40:55.597Z,-2.99
2018-12-19T03:43:24.836Z,-2.83
2018-12-19T03:45:54.087Z,-2.84
2018-12-19T03:48:28.453Z,-2.77
2018-12-19T03:50:57.800Z,-2.83
2018-12-19T03:53:28.007Z,-2.83
2018-12-19T03:55:57.260Z,-2.78
2018-12-19T03:58:26.602Z,-2.82
2018-12-19T04:00:55.868Z,-2.86
2018-12-19T04:03:25.179Z,-2.91
2018-12-19T04:05:54.507Z,-2.85
2018-12-19T04:08:23.721Z,-2.82
2018-12-19T04:10:52.987Z,-2.73
2018-12-19T04:13:22.268Z,-2.63
2018-12-19T04:15:51.619Z,-2.56
2018-12-19T04:18:20.870Z,-2.53
2018-12-19T04:20:50.820Z,-2.46
2018-12-19T04:23:20.101Z,-2.58
2018-12-19T04:25:49.308Z,-2.56
2018-12-19T04:28:18.580Z,-2.60
2018-12-19T04:30:47.856Z,-2.55
2018-12-19T04:33:17.133Z,-2.60
2018-12-19T04:35:46.689Z,-2.65
2018-12-19T04:38:16.106Z,-2.67
2018-12-19T04:40:45.427Z,-2.65
2018-12-19T04:43:14.695Z,-2.66
2018-12-19T04:45:44.072Z,-2.53
2018-12-19T04:48:13.445Z,-2.53
2018-12-19T04:50:42.679Z,-2.53
2018-12-19T04:53:14.541Z,-2.41
2018-12-19T04:55:43.848Z,-2.46
2018-12-19T04:58:13.158Z,-2.48
2018-12-19T05:00:42.497Z,-2.30
2018-12-19T05:03:11.880Z,-2.26
2018-12-19T05:05:41.209Z,-2.26
2018-12-19T05:08:10.456Z,-2.18
2018-12-19T05:10:39.734Z,-2.78
2018-12-19T05:13:15.347Z,-2.09
2018-12-19T05:15:45.638Z,-2.07
2018-12-19T05:18:14.879Z,-2.05
2018-12-19T05:20:45.122Z,-2.07
2018-12-19T05:23:14.436Z,-2.01
2018-12-19T05:25:43.730Z,-1.92
2018-12-19T05:28:12.976Z,-1.92
2018-12-19T05:30:42.291Z,-1.95
2018-12-19T05:33:11.499Z,-2.01
2018-12-19T05:35:40.828Z,-2.09
2018-12-19T05:38:10.079Z,-2.06
2018-12-19T05:40:39.390Z,-1.87
2018-12-19T05:43:23.349Z,-1.90
2018-12-19T05:45:52.595Z,-2.00
2018-12-19T05:48:21.846Z,-1.98
2018-12-19T05:50:51.116Z,-2.03
2018-12-19T05:53:20.343Z,-2.08
2018-12-19T05:55:49.564Z,-2.00
2018-12-19T05:58:18.821Z,-1.96
2018-12-19T06:00:48.072Z,-1.89
2018-12-19T06:03:17.344Z,-1.81
2018-12-19T06:05:47.244Z,-1.81
2018-12-19T06:08:16.859Z,-1.64
2018-12-19T06:10:46.152Z,-1.59
2018-12-19T06:13:15.461Z,-1.52
2018-12-19T06:15:44.726Z,-1.56
2018-12-19T06:18:13.960Z,-1.52
2018-12-19T06:20:43.281Z,-1.43
2018-12-19T06:23:15.211Z,-1.48
2018-12-19T06:25:44.458Z,-1.40
2018-12-19T06:28:13.866Z,-1.36
2018-12-19T06:30:43.795Z,-1.45
2018-12-19T06:33:13.045Z,-1.32
2018-12-19T06:35:42.321Z,-1.39
2018-12-19T06:38:11.936Z,-1.40
2018-12-19T06:40:41.298Z,-1.42
2018-12-19T06:43:10.555Z,-1.45
2018-12-19T06:45:39.880Z,-1.45
2018-12-19T06:48:09.111Z,-1.42
2018-12-19T06:50:38.335Z,-1.53
2018-12-19T06:53:07.555Z,-1.40
2018-12-19T06:55:36.870Z,-1.49
2018-12-19T06:58:06.105Z,-1.31
2018-12-19T07:00:35.750Z,-1.20
2018-12-19T07:03:05.034Z,-1.29
2018-12-19T07:05:34.307Z,-1.33
2018-12-19T07:08:03.611Z,-1.27
2018-12-19T07:10:38.984Z,-1.21
2018-12-19T07:13:04.747Z,-1.14
2018-12-19T07:15:34.018Z,-1.02
2018-12-19T07:18:03.379Z,-0.99
2018-12-19T07:20:34.339Z,-0.98
2018-12-19T07:23:03.572Z,-0.88
2018-12-19T07:25:33.005Z,-0.79
2018-12-19T07:28:02.356Z,-0.88
2018-12-19T07:30:31.825Z,-0.96
2018-12-19T07:33:01.118Z,-0.90
2018-12-19T07:35:30.373Z,-0.87
2018-12-19T07:37:59.642Z,-0.90
2018-12-19T07:40:29.369Z,-0.89
2018-12-19T07:42:58.649Z,-0.96
2018-12-19T07:45:28.024Z,-0.77
2018-12-19T07:47:57.793Z,-0.84
2018-12-19T07:50:27.133Z,-0.97
2018-12-19T07:52:56.432Z,-0.99
2018-12-19T07:55:27.592Z,-1.05
2018-12-19T07:57:56.824Z,-0.94
2018-12-19T08:00:27.586Z,-0.96
2018-12-19T08:02:57.089Z,-0.92
2018-12-19T08:05:26.877Z,-0.83
2018-12-19T08:07:57.405Z,-0.79
2018-12-19T08:10:26.733Z,-0.84
2018-12-19T08:12:55.954Z,-0.74
2018-12-19T08:15:25.225Z,-0.69
2018-12-19T08:17:54.817Z,-0.68
2018-12-19T08:20:24.073Z,-0.59
2018-12-19T08:22:53.435Z,-0.53
2018-12-19T08:25:22.662Z,-0.42
2018-12-19T08:27:51.986Z,-0.44
2018-12-19T08:30:21.930Z,-0.40
2018-12-19T08:32:51.279Z,-0.35
2018-12-19T08:35:21.142Z,-0.39
2018-12-19T08:37:50.434Z,-0.39
2018-12-19T08:40:19.700Z,-0.37
2018-12-19T08:42:48.952Z,-0.33
2018-12-19T08:45:18.502Z,-0.36
2018-12-19T08:47:48.034Z,-0.31
2018-12-19T08:50:17.610Z,-0.33
2018-12-19T08:52:46.839Z,-0.45
2018-12-19T08:55:16.115Z,-0.35
2018-12-19T08:57:46.243Z,-0.37
2018-12-19T09:00:16.312Z,-0.42
2018-12-19T09:02:45.598Z,-0.48
2018-12-19T09:05:16.625Z,-0.46
2018-12-19T09:07:46.098Z,-0.51
2018-12-19T09:10:15.370Z,-0.39
2018-12-19T09:12:44.800Z,-0.25
2018-12-19T09:15:16.084Z,-0.19
2018-12-19T09:17:46.300Z,-0.13
2018-12-19T09:20:16.303Z,-0.14
2018-12-19T09:22:46.751Z,-0.23
2018-12-19T09:25:16.022Z,-0.24
2018-12-19T09:27:45.299Z,-0.27
2018-12-19T09:30:14.831Z,-0.24
2018-12-19T09:32:44.180Z,-0.28
2018-12-19T09:35:13.541Z,-0.28
2018-12-19T09:37:42.890Z,-0.25
2018-12-19T09:40:12.277Z,-0.06
2018-12-19T09:42:41.532Z,-0.05
2018-12-19T09:45:10.833Z,0.02
2018-12-19T09:47:40.087Z,0.08
2018-12-19T09:50:09.787Z,0.20
2018-12-19T09:52:39.122Z,0.26
2018-12-19T09:55:08.390Z,0.29
2018-12-19T09:57:37.855Z,0.15
2018-12-19T10:00:11.627Z,0.11
2018-12-19T10:02:41.580Z,0.08
2018-12-19T10:05:10.903Z,0.08
2018-12-19T10:07:40.394Z,0.09
2018-12-19T10:10:09.774Z,0.12
2018-12-19T10:12:39.005Z,0.37
2018-12-19T10:15:08.533Z,0.28
2018-12-19T10:17:40.939Z,0.32
2018-12-19T10:20:09.274Z,0.34
2018-12-19T10:22:39.272Z,0.45
2018-12-19T10:25:15.676Z,0.42
2018-12-19T10:27:44.963Z,0.37
2018-12-19T10:30:14.733Z,0.35
2018-12-19T10:32:44.107Z,0.37
2018-12-19T10:35:13.537Z,0.35
2018-12-19T10:37:42.774Z,0.37
2018-12-19T10:40:12.637Z,0.50
2018-12-19T10:42:41.882Z,0.45
2018-12-19T10:45:12.152Z,0.41
2018-12-19T10:47:42.285Z,0.51
2018-12-19T10:50:11.714Z,0.54
2018-12-19T10:52:40.981Z,0.57
2018-12-19T10:55:10.435Z,0.58
2018-12-19T10:57:39.680Z,0.55
2018-12-19T11:00:17.742Z,0.62
2018-12-19T11:02:49.093Z,0.64
2018-12-19T11:05:19.101Z,0.84
2018-12-19T11:07:48.291Z,0.88
2018-12-19T11:10:17.642Z,0.72
2018-12-19T11:12:46.899Z,0.71
2018-12-19T11:15:16.154Z,0.77
2018-12-19T11:17:45.549Z,0.85
2018-12-19T11:20:14.857Z,0.79
2018-12-19T11:22:44.678Z,0.82
2018-12-19T11:25:13.972Z,0.95
2018-12-19T11:27:43.796Z,0.89
2018-12-19T11:30:13.092Z,0.86
2018-12-19T11:32:43.211Z,0.87
2018-12-19T11:35:12.435Z,0.82
2018-12-19T11:37:42.384Z,0.80
2018-12-19T11:40:11.732Z,0.83
2018-12-19T11:42:41.168Z,0.84
2018-12-19T11:45:10.425Z,0.98
2018-12-19T11:47:39.729Z,0.87
2018-12-19T11:50:09.398Z,0.81
2018-12-19T11:52:39.369Z,0.86
2018-12-19T11:55:08.918Z,0.88
2018-12-19T11:57:38.580Z,0.87
2018-12-19T12:00:09.633Z,0.91
2018-12-19T12:02:39.287Z,0.93
2018-12-19T12:05:08.627Z,0.85
2018-12-19T12:07:38.003Z,0.85
2018-12-19T12:10:08.595Z,0.75
2018-12-19T12:12:37.924Z,0.82
2018-12-19T12:15:07.913Z,0.73
2018-12-19T12:17:37.635Z,0.73
2018-12-19T12:20:08.562Z,0.67
2018-12-19T12:22:38.050Z,0.62
2018-12-19T12:25:07.636Z,0.67
2018-12-19T12:27:36.917Z,0.61
2018-12-19T12:30:06.866Z,0.61
2018-12-19T12:32:36.053Z,0.59
2018-12-19T12:35:07.068Z,0.59
2018-12-19T12:37:36.317Z,0.60
2018-12-19T12:40:06.628Z,0.57
2018-12-19T12:42:35.972Z,0.60
2018-12-19T12:45:05.882Z,0.59
2018-12-19T12:47:35.154Z,0.57
2018-12-19T12:50:05.478Z,0.60
2018-12-19T12:52:34.917Z,0.57
2018-12-19T12:55:04.384Z,0.56
2018-12-19T12:57:34.177Z,0.55
2018-12-19T13:00:03.582Z,0.54
2018-12-19T13:02:32.813Z,0.42
2018-12-19T13:05:02.020Z,0.43
2018-12-19T13:07:31.369Z,0.58
2018-12-19T13:10:00.581Z,0.55
2018-12-19T13:12:29.816Z,0.58
2018-12-19T13:14:59.305Z,0.53
2018-12-19T13:17:29.136Z,0.57
2018-12-19T13:19:58.386Z,0.51
2018-12-19T13:22:27.636Z,0.55
2018-12-19T13:24:56.843Z,0.52
2018-12-19T13:27:26.203Z,0.57
2018-12-19T13:29:55.435Z,0.55
2018-12-19T13:32:24.708Z,0.55
2018-12-19T13:34:54.481Z,0.43
2018-12-19T13:37:24.311Z,0.39
2018-12-19T13:39:53.737Z,0.32
2018-12-19T13:42:23.080Z,0.43
2018-12-19T13:44:52.336Z,0.52
2018-12-19T13:47:21.899Z,0.43
2018-12-19T13:49:51.959Z,0.46
2018-12-19T13:52:21.221Z,0.53
2018-12-19T13:54:50.558Z,0.50
2018-12-19T13:57:20.560Z,0.46
2018-12-19T13:59:49.955Z,0.48
2018-12-19T14:02:19.456Z,0.49
2018-12-19T14:04:48.922Z,0.48
2018-12-19T14:07:18.286Z,0.46
2018-12-19T14:09:49.796Z,0.48
2018-12-19T14:12:19.035Z,0.42
2018-12-19T14:14:49.075Z,0.37
2018-12-19T14:17:19.011Z,0.40
2018-12-19T14:19:48.437Z,0.49
2018-12-19T14:22:17.686Z,0.54
2018-12-19T14:24:46.979Z,0.55
2018-12-19T14:27:17.318Z,0.52
2018-12-19T14:29:47.528Z,0.46
2018-12-19T14:32:17.071Z,0.53
2018-12-19T14:34:47.804Z,0.51
2018-12-19T14:37:17.381Z,0.52
2018-12-19T14:39:47.100Z,0.57
2018-12-19T14:42:19.248Z,0.55
2018-12-19T14:44:47.808Z,0.59
2018-12-19T14:47:17.129Z,0.57
2018-12-19T14:49:47.127Z,0.60
2018-12-19T14:52:16.512Z,0.53
2018-12-19T14:54:45.810Z,0.51
2018-12-19T14:57:15.349Z,0.60
2018-12-19T14:59:45.446Z,0.57
2018-12-19T15:02:15.699Z,0.58
2018-12-19T15:04:48.923Z,0.62
2018-12-19T15:07:21.367Z,0.62
2018-12-19T15:09:51.368Z,0.62
2018-12-19T15:12:25.768Z,0.53
2018-12-19T15:14:52.591Z,0.49
2018-12-19T15:17:21.904Z,0.59
2018-12-19T15:19:51.685Z,0.49
2018-12-19T15:22:20.961Z,0.58
2018-12-19T15:24:50.203Z,0.63
2018-12-19T15:27:19.538Z,0.58
2018-12-19T15:29:49.073Z,0.63
2018-12-19T15:32:18.497Z,0.57
2018-12-19T15:34:48.556Z,0.64
2018-12-19T15:37:18.046Z,0.63
2018-12-19T15:39:47.307Z,0.65
2018-12-19T15:42:16.512Z,0.60
2018-12-19T15:44:45.789Z,0.59
2018-12-19T15:47:15.045Z,0.55
2018-12-19T15:49:45.290Z,0.70
2018-12-19T15:52:15.072Z,0.67
2018-12-19T15:54:44.668Z,0.65
2018-12-19T15:57:14.113Z,0.59
2018-12-19T15:59:45.179Z,0.62
2018-12-19T16:02:16.019Z,0.69
2018-12-19T16:04:48.514Z,0.67
2018-12-19T16:07:18.510Z,0.64
2018-12-19T16:09:48.073Z,0.58
2018-12-19T16:12:17.365Z,0.65
2018-12-19T16:14:52.582Z,0.60
2018-12-19T16:17:21.873Z,0.54
2018-12-19T16:19:52.228Z,0.60
2018-12-19T16:22:33.821Z,0.63
2018-12-19T16:25:03.226Z,0.61
2018-12-19T16:27:32.536Z,0.66
2018-12-19T16:30:02.107Z,0.55
2018-12-19T16:32:31.356Z,0.68
2018-12-19T16:35:01.408Z,0.65
2018-12-19T16:37:30.644Z,0.60
2018-12-19T16:40:00.903Z,0.67
2018-12-19T16:42:30.276Z,0.63
2018-12-19T16:45:00.593Z,0.69
2018-12-19T16:47:29.803Z,0.67
2018-12-19T16:49:59.197Z,0.68
2018-12-19T16:52:28.729Z,0.68
2018-12-19T16:54:58.008Z,0.63
2018-12-19T16:57:27.303Z,0.63
2018-12-19T16:59:56.948Z,0.61
2018-12-19T17:02:26.452Z,0.63
2018-12-19T17:04:55.810Z,0.64
2018-12-19T17:07:25.079Z,0.53
2018-12-19T17:09:54.910Z,0.56
2018-12-19T17:12:26.109Z,0.55
2018-12-19T17:14:55.407Z,0.66
2018-12-19T17:17:24.909Z,0.65
2018-12-19T17:19:54.433Z,0.73
2018-12-19T17:22:24.194Z,0.73
2018-12-19T17:25:00.285Z,0.74
2018-12-19T17:27:29.953Z,0.68
2018-12-19T17:29:59.436Z,0.70
2018-12-19T17:32:29.290Z,0.63
2018-12-19T17:34:58.929Z,0.72
2018-12-19T17:37:29.000Z,0.70
2018-12-19T17:39:58.627Z,0.72
2018-12-19T17:42:28.222Z,0.71
2018-12-19T17:44:58.387Z,0.71
2018-12-19T17:47:28.132Z,0.81
2018-12-19T17:49:57.656Z,0.79
2018-12-19T17:52:27.729Z,0.77
2018-12-19T17:54:57.248Z,0.80
2018-12-19T17:57:27.914Z,0.83
2018-12-19T17:59:57.501Z,0.75
2018-12-19T18:02:28.121Z,0.87
2018-12-19T18:04:57.504Z,0.87
2018-12-19T18:07:27.754Z,0.83
2018-12-19T18:09:58.285Z,0.82
2018-12-19T18:12:27.832Z,0.77
2018-12-19T18:14:57.739Z,0.92
2018-12-19T18:17:27.353Z,0.85
2018-12-19T18:19:58.030Z,0.85
2018-12-19T18:22:28.394Z,0.99
2018-12-19T18:24:58.270Z,1.03
2018-12-19T18:27:28.089Z,0.97
2018-12-19T18:29:58.522Z,1.10
2018-12-19T18:32:28.566Z,1.09
2018-12-19T18:34:58.541Z,1.11
2018-12-19T18:37:30.401Z,1.15
2018-12-19T18:39:59.973Z,1.14
2018-12-19T18:42:29.708Z,0.99
2018-12-19T18:45:02.005Z,1.18
2018-12-19T18:47:31.594Z,1.25
2018-12-19T18:50:01.471Z,1.12
2018-12-19T18:52:31.242Z,1.22
2018-12-19T18:55:01.733Z,1.27
2018-12-19T18:57:31.457Z,1.26
2018-12-19T19:00:01.148Z,1.27
2018-12-19T19:02:30.867Z,1.28
2018-12-19T19:05:01.163Z,1.26
2018-12-19T19:07:33.408Z,1.22
2018-12-19T19:10:03.298Z,1.23
2018-12-19T19:12:32.941Z,1.26
2018-12-19T19:15:03.146Z,1.23
2018-12-19T19:17:32.758Z,1.17
2018-12-19T19:20:02.488Z,1.10
2018-12-19T19:22:32.122Z,1.19
2018-12-19T19:25:01.728Z,1.17
2018-12-19T19:27:33.034Z,1.31
2018-12-19T19:30:02.939Z,1.39
2018-12-19T19:32:32.590Z,1.34
2018-12-19T19:35:02.403Z,1.32
2018-12-19T19:37:32.350Z,1.23
2018-12-19T19:40:05.384Z,1.27
2018-12-19T19:42:35.171Z,1.34
2018-12-19T19:45:05.278Z,1.34
2018-12-19T19:47:34.973Z,1.30
2018-12-19T19:50:05.890Z,1.32
2018-12-19T19:52:35.531Z,1.24
2018-12-19T19:55:05.377Z,1.25
2018-12-19T19:57:35.628Z,1.23
2018-12-19T20:00:06.392Z,1.26
2018-12-19T20:02:36.016Z,1.24
2018-12-19T20:05:06.402Z,1.39
2018-12-19T20:07:37.730Z,1.32
2018-12-19T20:10:07.818Z,1.37
2018-12-19T20:12:38.456Z,1.33
2018-12-19T20:15:08.334Z,1.35
2018-12-19T20:17:37.980Z,1.40
2018-12-19T20:20:07.761Z,1.36
2018-12-19T20:22:39.203Z,1.42
2018-12-19T20:25:08.872Z,1.35
2018-12-19T20:27:40.396Z,1.29
2018-12-19T20:30:11.861Z,1.34
2018-12-19T20:32:42.329Z,1.38
2018-12-19T20:35:12.505Z,1.34
2018-12-19T20:37:43.994Z,1.34
2018-12-19T20:40:14.007Z,1.36
2018-12-19T20:42:44.089Z,1.30
2018-12-19T20:45:14.562Z,1.40
2018-12-19T20:47:45.513Z,1.37
2018-12-19T20:50:15.274Z,1.33
2018-12-19T20:52:45.498Z,1.35
2018-12-19T20:55:15.629Z,1.31
2018-12-19T20:57:45.920Z,1.25
2018-12-19T21:00:15.716Z,1.35
2018-12-19T21:02:45.717Z,1.36
2018-12-19T21:05:15.430Z,1.42
2018-12-19T21:07:46.053Z,1.33
2018-12-19T21:10:16.112Z,1.34
2018-12-19T21:12:47.404Z,1.41
2018-12-19T21:15:17.873Z,1.41
2018-12-19T21:17:53.467Z,1.40
2018-12-19T21:20:23.187Z,1.43
2018-12-19T21:22:52.941Z,1.45
2018-12-19T21:25:24.995Z,1.50
2018-12-19T21:27:54.986Z,1.47
2018-12-19T21:30:27.056Z,1.45
2018-12-19T21:32:56.778Z,1.48
2018-12-19T21:35:26.506Z,1.52
2018-12-19T21:37:56.208Z,1.63
2018-12-19T21:40:25.899Z,1.61
2018-12-19T21:42:56.797Z,1.60
2018-12-19T21:45:26.212Z,1.65
2018-12-19T21:47:55.574Z,1.65
2018-12-19T21:50:25.794Z,1.67
2018-12-19T21:52:55.169Z,1.64
2018-12-19T21:55:24.571Z,1.69
2018-12-19T21:57:53.868Z,1.69
2018-12-19T22:00:25.325Z,1.70
2018-12-19T22:02:54.862Z,1.70
2018-12-19T22:05:24.173Z,1.71
2018-12-19T22:07:56.135Z,1.75
2018-12-19T22:10:26.311Z,1.73
2018-12-19T22:12:56.159Z,1.67
2018-12-19T22:15:25.758Z,1.70
2018-12-19T22:18:00.542Z,1.71
2018-12-19T22:20:30.035Z,1.67
2018-12-19T22:22:59.557Z,1.68
2018-12-19T22:25:29.640Z,1.75
2018-12-19T22:27:58.969Z,1.71
2018-12-19T22:30:29.322Z,1.70
2018-12-19T22:32:58.723Z,1.69
2018-12-19T22:35:28.558Z,1.68
2018-12-19T22:37:58.134Z,1.71
2018-12-19T22:40:27.453Z,1.69
2018-12-19T22:42:56.670Z,1.65
2018-12-19T22:45:27.164Z,1.70
2018-12-19T22:47:56.737Z,1.67
2018-12-19T22:50:26.355Z,1.71
2018-12-19T22:52:55.621Z,1.67
2018-12-19T22:55:24.900Z,1.66
2018-12-19T22:57:54.232Z,1.61
2018-12-19T23:00:23.754Z,1.67
2018-12-19T23:02:58.333Z,1.59
2018-12-19T23:05:32.852Z,1.62
2018-12-19T23:08:02.224Z,1.58
2018-12-19T23:10:31.496Z,1.63
2018-12-19T23:13:01.830Z,1.63
2018-12-19T23:15:31.132Z,1.59
2018-12-19T23:18:33.895Z,1.65
2018-12-19T23:21:10.669Z,1.61
2018-12-19T23:23:40.796Z,1.60
2018-12-19T23:26:12.882Z,1.56
2018-12-19T23:28:42.832Z,1.60
2018-12-19T23:31:12.323Z,1.62
2018-12-19T23:33:42.087Z,1.60
2018-12-19T23:36:11.387Z,1.58
2018-12-19T23:38:41.428Z,1.51
2018-12-19T23:41:10.842Z,1.58
2018-12-19T23:43:40.195Z,1.54
2018-12-19T23:46:09.397Z,1.55
2018-12-19T23:48:39.439Z,1.54
2018-12-19T23:51:09.335Z,1.58
2018-12-19T23:53:39.325Z,1.57
2018-12-19T23:56:08.826Z,1.59
2018-12-19T23:58:38.060Z,1.54
